sensor_id;sensor_type;location;lat;lon;timestamp;temperature;humidity
21759;DHT22;11041;50.854;20.580;2024-03-17T00:01:06;9.60;99.90
21759;DHT22;11041;50.854;20.580;2024-03-17T00:03:54;9.60;99.90
21759;DHT22;11041;50.854;20.580;2024-03-17T00:06:20;9.50;99.90
21759;DHT22;11041;50.854;20.580;2024-03-17T00:08:47;9.50;99.90
21759;DHT22;11041;50.854;20.580;2024-03-17T00:11:13;9.40;99.90
21759;DHT22;11041;50.854;20.580;2024-03-17T00:13:40;9.50;99.90
21759;DHT22;11041;50.854;20.580;2024-03-17T00:16:07;9.50;99.90
21759;DHT22;11041;50.854;20.580;2024-03-17T00:18:34;9.40;99.90
21759;DHT22;11041;50.854;20.580;2024-03-17T00:21:02;9.20;99.90
21759;DHT22;11041;50.854;20.580;2024-03-17T00:23:30;9.10;99.90
21759;DHT22;11041;50.854;20.580;2024-03-17T00:25:56;9.00;99.90
21759;DHT22;11041;50.854;20.580;2024-03-17T00:28:23;8.90;99.90
21759;DHT22;11041;50.854;20.580;2024-03-17T00:30:50;8.80;99.90
21759;DHT22;11041;50.854;20.580;2024-03-17T00:33:17;8.80;99.90
21759;DHT22;11041;50.854;20.580;2024-03-17T00:35:45;8.70;99.90
21759;DHT22;11041;50.854;20.580;2024-03-17T00:38:11;8.60;99.90
21759;DHT22;11041;50.854;20.580;2024-03-17T00:40:38;8.60;99.90
21759;DHT22;11041;50.854;20.580;2024-03-17T00:43:08;8.60;99.90
21759;DHT22;11041;50.854;20.580;2024-03-17T00:45:34;8.40;99.90
21759;DHT22;11041;50.854;20.580;2024-03-17T00:48:01;8.30;99.90
21759;DHT22;11041;50.854;20.580;2024-03-17T00:50:27;8.10;99.90
21759;DHT22;11041;50.854;20.580;2024-03-17T00:52:54;8.00;99.90
21759;DHT22;11041;50.854;20.580;2024-03-17T00:55:20;7.80;99.90
21759;DHT22;11041;50.854;20.580;2024-03-17T00:57:47;7.70;99.90
21759;DHT22;11041;50.854;20.580;2024-03-17T01:00:14;7.60;99.90
21759;DHT22;11041;50.854;20.580;2024-03-17T01:02:41;7.50;99.90
21759;DHT22;11041;50.854;20.580;2024-03-17T01:05:08;7.10;99.90
21759;DHT22;11041;50.854;20.580;2024-03-17T01:07:35;7.00;99.90
21759;DHT22;11041;50.854;20.580;2024-03-17T01:10:01;7.00;99.90
21759;DHT22;11041;50.854;20.580;2024-03-17T01:12:28;6.90;99.90
21759;DHT22;11041;50.854;20.580;2024-03-17T01:14:54;6.70;99.90
21759;DHT22;11041;50.854;20.580;2024-03-17T01:17:21;6.70;99.90
21759;DHT22;11041;50.854;20.580;2024-03-17T01:19:47;6.50;99.90
21759;DHT22;11041;50.854;20.580;2024-03-17T01:22:14;6.60;99.90
21759;DHT22;11041;50.854;20.580;2024-03-17T01:24:40;6.50;99.90
21759;DHT22;11041;50.854;20.580;2024-03-17T01:27:12;6.50;99.90
21759;DHT22;11041;50.854;20.580;2024-03-17T01:29:43;6.50;99.90
21759;DHT22;11041;50.854;20.580;2024-03-17T01:32:10;6.40;99.90
21759;DHT22;11041;50.854;20.580;2024-03-17T01:34:40;6.50;99.90
21759;DHT22;11041;50.854;20.580;2024-03-17T01:37:07;6.50;99.90
21759;DHT22;11041;50.854;20.580;2024-03-17T01:39:33;6.50;99.90
21759;DHT22;11041;50.854;20.580;2024-03-17T01:42:00;6.40;99.90
21759;DHT22;11041;50.854;20.580;2024-03-17T01:44:29;6.40;99.90
21759;DHT22;11041;50.854;20.580;2024-03-17T01:46:57;6.30;99.90
21759;DHT22;11041;50.854;20.580;2024-03-17T01:49:25;6.40;99.90
21759;DHT22;11041;50.854;20.580;2024-03-17T01:51:53;6.30;99.90
21759;DHT22;11041;50.854;20.580;2024-03-17T01:54:20;6.50;99.90
21759;DHT22;11041;50.854;20.580;2024-03-17T01:56:48;6.50;99.90
21759;DHT22;11041;50.854;20.580;2024-03-17T01:59:14;6.40;99.90
21759;DHT22;11041;50.854;20.580;2024-03-17T02:01:41;6.40;99.90
21759;DHT22;11041;50.854;20.580;2024-03-17T02:04:08;6.40;99.90
21759;DHT22;11041;50.854;20.580;2024-03-17T02:06:38;6.40;99.90
21759;DHT22;11041;50.854;20.580;2024-03-17T02:09:05;6.40;99.90
21759;DHT22;11041;50.854;20.580;2024-03-17T02:11:34;6.30;99.90
21759;DHT22;11041;50.854;20.580;2024-03-17T02:14:00;6.40;99.90
21759;DHT22;11041;50.854;20.580;2024-03-17T02:16:30;6.40;99.90
21759;DHT22;11041;50.854;20.580;2024-03-17T02:18:58;6.30;99.90
21759;DHT22;11041;50.854;20.580;2024-03-17T02:21:28;6.40;99.90
21759;DHT22;11041;50.854;20.580;2024-03-17T02:23:57;6.50;99.90
21759;DHT22;11041;50.854;20.580;2024-03-17T02:26:26;6.50;99.90
21759;DHT22;11041;50.854;20.580;2024-03-17T02:28:53;6.40;99.90
21759;DHT22;11041;50.854;20.580;2024-03-17T02:31:21;6.30;99.90
21759;DHT22;11041;50.854;20.580;2024-03-17T02:33:48;6.30;99.90
21759;DHT22;11041;50.854;20.580;2024-03-17T02:36:15;6.20;99.90
21759;DHT22;11041;50.854;20.580;2024-03-17T02:38:43;6.20;99.90
21759;DHT22;11041;50.854;20.580;2024-03-17T02:41:30;6.20;99.90
21759;DHT22;11041;50.854;20.580;2024-03-17T02:43:56;6.20;99.90
21759;DHT22;11041;50.854;20.580;2024-03-17T02:46:24;6.30;99.90
21759;DHT22;11041;50.854;20.580;2024-03-17T02:48:52;6.30;99.90
21759;DHT22;11041;50.854;20.580;2024-03-17T02:51:22;6.30;99.90
21759;DHT22;11041;50.854;20.580;2024-03-17T02:53:50;6.30;99.90
21759;DHT22;11041;50.854;20.580;2024-03-17T02:56:18;6.40;99.90
21759;DHT22;11041;50.854;20.580;2024-03-17T02:58:46;6.30;99.90
21759;DHT22;11041;50.854;20.580;2024-03-17T03:01:15;6.30;99.90
21759;DHT22;11041;50.854;20.580;2024-03-17T03:03:42;6.30;99.90
21759;DHT22;11041;50.854;20.580;2024-03-17T03:06:09;6.10;99.90
21759;DHT22;11041;50.854;20.580;2024-03-17T03:08:38;6.20;99.90
21759;DHT22;11041;50.854;20.580;2024-03-17T03:11:08;6.10;99.90
21759;DHT22;11041;50.854;20.580;2024-03-17T03:13:40;6.20;99.90
21759;DHT22;11041;50.854;20.580;2024-03-17T03:16:11;6.20;99.90
21759;DHT22;11041;50.854;20.580;2024-03-17T03:18:43;6.20;99.90
21759;DHT22;11041;50.854;20.580;2024-03-17T03:21:12;6.20;99.90
21759;DHT22;11041;50.854;20.580;2024-03-17T03:23:40;6.20;99.90
21759;DHT22;11041;50.854;20.580;2024-03-17T03:26:06;6.30;99.90
21759;DHT22;11041;50.854;20.580;2024-03-17T03:28:35;6.30;99.90
21759;DHT22;11041;50.854;20.580;2024-03-17T03:31:05;6.20;99.90
21759;DHT22;11041;50.854;20.580;2024-03-17T03:33:33;6.30;99.90
21759;DHT22;11041;50.854;20.580;2024-03-17T03:36:08;6.30;99.90
21759;DHT22;11041;50.854;20.580;2024-03-17T03:38:35;6.20;99.90
21759;DHT22;11041;50.854;20.580;2024-03-17T03:41:14;6.30;99.90
21759;DHT22;11041;50.854;20.580;2024-03-17T03:43:41;6.20;99.90
21759;DHT22;11041;50.854;20.580;2024-03-17T03:46:09;6.20;99.90
21759;DHT22;11041;50.854;20.580;2024-03-17T03:48:35;6.10;99.90
21759;DHT22;11041;50.854;20.580;2024-03-17T03:51:05;6.10;99.90
21759;DHT22;11041;50.854;20.580;2024-03-17T03:53:36;6.00;99.90
21759;DHT22;11041;50.854;20.580;2024-03-17T03:56:05;6.10;99.90
21759;DHT22;11041;50.854;20.580;2024-03-17T03:58:33;6.00;99.90
21759;DHT22;11041;50.854;20.580;2024-03-17T04:01:07;6.00;99.90
21759;DHT22;11041;50.854;20.580;2024-03-17T04:03:35;5.90;99.90
21759;DHT22;11041;50.854;20.580;2024-03-17T04:06:11;5.90;99.90
21759;DHT22;11041;50.854;20.580;2024-03-17T04:08:39;6.00;99.90
21759;DHT22;11041;50.854;20.580;2024-03-17T04:11:07;6.00;99.90
21759;DHT22;11041;50.854;20.580;2024-03-17T04:13:34;5.90;99.90
21759;DHT22;11041;50.854;20.580;2024-03-17T04:16:06;5.90;99.90
21759;DHT22;11041;50.854;20.580;2024-03-17T04:18:34;5.90;99.90
21759;DHT22;11041;50.854;20.580;2024-03-17T04:21:07;5.90;99.90
21759;DHT22;11041;50.854;20.580;2024-03-17T04:23:36;5.90;99.90
21759;DHT22;11041;50.854;20.580;2024-03-17T04:26:05;5.80;99.90
21759;DHT22;11041;50.854;20.580;2024-03-17T04:28:33;5.70;99.90
21759;DHT22;11041;50.854;20.580;2024-03-17T04:31:05;5.70;99.90
21759;DHT22;11041;50.854;20.580;2024-03-17T04:33:35;5.70;99.90
21759;DHT22;11041;50.854;20.580;2024-03-17T04:36:02;5.60;99.90
21759;DHT22;11041;50.854;20.580;2024-03-17T04:38:29;5.60;99.90
21759;DHT22;11041;50.854;20.580;2024-03-17T04:40:55;5.60;99.90
21759;DHT22;11041;50.854;20.580;2024-03-17T04:43:31;5.60;99.90
21759;DHT22;11041;50.854;20.580;2024-03-17T04:46:05;5.60;99.90
21759;DHT22;11041;50.854;20.580;2024-03-17T04:48:33;5.60;99.90
21759;DHT22;11041;50.854;20.580;2024-03-17T04:51:02;5.60;99.90
21759;DHT22;11041;50.854;20.580;2024-03-17T04:53:29;5.60;99.90
21759;DHT22;11041;50.854;20.580;2024-03-17T04:56:03;5.70;99.90
21759;DHT22;11041;50.854;20.580;2024-03-17T04:58:32;5.60;99.90
21759;DHT22;11041;50.854;20.580;2024-03-17T05:01:09;5.60;99.90
21759;DHT22;11041;50.854;20.580;2024-03-17T05:03:35;5.40;99.90
21759;DHT22;11041;50.854;20.580;2024-03-17T05:06:04;5.40;99.90
21759;DHT22;11041;50.854;20.580;2024-03-17T05:08:32;5.20;99.90
21759;DHT22;11041;50.854;20.580;2024-03-17T05:11:06;5.20;99.90
21759;DHT22;11041;50.854;20.580;2024-03-17T05:13:34;5.20;99.90
21759;DHT22;11041;50.854;20.580;2024-03-17T05:16:05;5.10;99.90
21759;DHT22;11041;50.854;20.580;2024-03-17T05:18:34;5.30;99.90
21759;DHT22;11041;50.854;20.580;2024-03-17T05:21:11;5.30;99.90
21759;DHT22;11041;50.854;20.580;2024-03-17T05:23:37;5.30;99.90
21759;DHT22;11041;50.854;20.580;2024-03-17T05:26:05;5.20;99.90
21759;DHT22;11041;50.854;20.580;2024-03-17T05:28:31;5.20;99.90
21759;DHT22;11041;50.854;20.580;2024-03-17T05:31:01;5.10;99.90
21759;DHT22;11041;50.854;20.580;2024-03-17T05:33:29;5.10;99.90
21759;DHT22;11041;50.854;20.580;2024-03-17T05:35:59;5.10;99.90
21759;DHT22;11041;50.854;20.580;2024-03-17T05:38:29;4.90;99.90
21759;DHT22;11041;50.854;20.580;2024-03-17T05:41:03;4.80;99.90
21759;DHT22;11041;50.854;20.580;2024-03-17T05:43:35;4.90;99.90
21759;DHT22;11041;50.854;20.580;2024-03-17T05:46:04;4.80;99.90
21759;DHT22;11041;50.854;20.580;2024-03-17T05:48:37;4.70;99.90
21759;DHT22;11041;50.854;20.580;2024-03-17T05:51:10;4.80;99.90
21759;DHT22;11041;50.854;20.580;2024-03-17T05:53:39;4.90;99.90
21759;DHT22;11041;50.854;20.580;2024-03-17T05:56:07;4.90;99.90
21759;DHT22;11041;50.854;20.580;2024-03-17T05:58:35;5.00;99.90
21759;DHT22;11041;50.854;20.580;2024-03-17T06:01:04;5.20;99.90
21759;DHT22;11041;50.854;20.580;2024-03-17T06:03:33;5.40;99.90
21759;DHT22;11041;50.854;20.580;2024-03-17T06:06:06;5.40;99.90
21759;DHT22;11041;50.854;20.580;2024-03-17T06:08:37;5.20;99.90
21759;DHT22;11041;50.854;20.580;2024-03-17T06:11:05;5.20;99.90
21759;DHT22;11041;50.854;20.580;2024-03-17T06:13:32;5.20;99.90
21759;DHT22;11041;50.854;20.580;2024-03-17T06:15:58;5.30;99.90
21759;DHT22;11041;50.854;20.580;2024-03-17T06:18:30;5.20;99.90
21759;DHT22;11041;50.854;20.580;2024-03-17T06:20:57;5.10;99.90
21759;DHT22;11041;50.854;20.580;2024-03-17T06:23:24;5.10;99.90
21759;DHT22;11041;50.854;20.580;2024-03-17T06:25:54;5.30;99.90
21759;DHT22;11041;50.854;20.580;2024-03-17T06:28:22;5.10;99.90
21759;DHT22;11041;50.854;20.580;2024-03-17T06:30:57;5.10;99.90
21759;DHT22;11041;50.854;20.580;2024-03-17T06:33:25;5.00;99.90
21759;DHT22;11041;50.854;20.580;2024-03-17T06:36:01;5.00;99.90
21759;DHT22;11041;50.854;20.580;2024-03-17T06:38:31;4.90;99.90
21759;DHT22;11041;50.854;20.580;2024-03-17T06:40:58;4.90;99.90
21759;DHT22;11041;50.854;20.580;2024-03-17T06:43:24;4.90;99.90
21759;DHT22;11041;50.854;20.580;2024-03-17T06:45:58;5.00;99.90
21759;DHT22;11041;50.854;20.580;2024-03-17T06:48:27;5.20;99.90
21759;DHT22;11041;50.854;20.580;2024-03-17T06:50:55;5.10;99.90
21759;DHT22;11041;50.854;20.580;2024-03-17T06:53:25;5.10;99.90
21759;DHT22;11041;50.854;20.580;2024-03-17T06:56:00;5.10;99.90
21759;DHT22;11041;50.854;20.580;2024-03-17T06:58:27;4.90;99.90
21759;DHT22;11041;50.854;20.580;2024-03-17T07:01:01;5.10;99.90
21759;DHT22;11041;50.854;20.580;2024-03-17T07:03:29;4.90;99.90
21759;DHT22;11041;50.854;20.580;2024-03-17T07:05:58;5.00;99.90
21759;DHT22;11041;50.854;20.580;2024-03-17T07:08:28;4.70;99.90
21759;DHT22;11041;50.854;20.580;2024-03-17T07:10:58;4.80;99.90
21759;DHT22;11041;50.854;20.580;2024-03-17T07:13:32;4.90;99.90
21759;DHT22;11041;50.854;20.580;2024-03-17T07:16:02;5.00;99.90
21759;DHT22;11041;50.854;20.580;2024-03-17T07:18:32;5.10;99.90
21759;DHT22;11041;50.854;20.580;2024-03-17T07:21:00;5.20;99.90
21759;DHT22;11041;50.854;20.580;2024-03-17T07:23:31;5.30;99.90
21759;DHT22;11041;50.854;20.580;2024-03-17T07:26:00;5.40;99.90
21759;DHT22;11041;50.854;20.580;2024-03-17T07:28:27;5.30;99.90
21759;DHT22;11041;50.854;20.580;2024-03-17T07:30:59;5.30;99.90
21759;DHT22;11041;50.854;20.580;2024-03-17T07:33:28;5.20;99.90
21759;DHT22;11041;50.854;20.580;2024-03-17T07:35:57;5.20;99.90
21759;DHT22;11041;50.854;20.580;2024-03-17T07:38:27;5.00;99.90
21759;DHT22;11041;50.854;20.580;2024-03-17T07:41:03;5.20;99.90
21759;DHT22;11041;50.854;20.580;2024-03-17T07:43:33;5.20;99.90
21759;DHT22;11041;50.854;20.580;2024-03-17T07:48:39;5.20;99.90
21759;DHT22;11041;50.854;20.580;2024-03-17T07:51:11;5.20;99.90
21759;DHT22;11041;50.854;20.580;2024-03-17T07:53:40;5.30;99.90
21759;DHT22;11041;50.854;20.580;2024-03-17T07:56:12;5.50;99.90
21759;DHT22;11041;50.854;20.580;2024-03-17T07:58:43;5.60;99.90
21759;DHT22;11041;50.854;20.580;2024-03-17T08:01:15;5.80;99.90
21759;DHT22;11041;50.854;20.580;2024-03-17T08:03:45;5.70;99.90
21759;DHT22;11041;50.854;20.580;2024-03-17T08:06:15;5.60;99.90
21759;DHT22;11041;50.854;20.580;2024-03-17T08:08:41;5.50;99.90
21759;DHT22;11041;50.854;20.580;2024-03-17T08:11:11;5.40;99.90
21759;DHT22;11041;50.854;20.580;2024-03-17T08:13:40;5.40;99.90
21759;DHT22;11041;50.854;20.580;2024-03-17T08:16:09;5.60;99.90
21759;DHT22;11041;50.854;20.580;2024-03-17T08:18:38;5.60;99.90
21759;DHT22;11041;50.854;20.580;2024-03-17T08:21:06;5.70;99.90
21759;DHT22;11041;50.854;20.580;2024-03-17T08:23:37;5.90;99.90
21759;DHT22;11041;50.854;20.580;2024-03-17T08:26:12;5.90;99.90
21759;DHT22;11041;50.854;20.580;2024-03-17T08:28:38;5.90;99.90
21759;DHT22;11041;50.854;20.580;2024-03-17T08:31:05;5.90;99.90
21759;DHT22;11041;50.854;20.580;2024-03-17T08:33:34;5.40;99.90
21759;DHT22;11041;50.854;20.580;2024-03-17T08:36:06;5.30;99.90
21759;DHT22;11041;50.854;20.580;2024-03-17T08:38:38;5.20;99.90
21759;DHT22;11041;50.854;20.580;2024-03-17T08:41:08;5.40;99.90
21759;DHT22;11041;50.854;20.580;2024-03-17T08:43:37;5.40;99.90
21759;DHT22;11041;50.854;20.580;2024-03-17T08:46:07;5.20;99.90
21759;DHT22;11041;50.854;20.580;2024-03-17T08:48:36;5.30;99.90
21759;DHT22;11041;50.854;20.580;2024-03-17T08:51:07;5.40;99.90
21759;DHT22;11041;50.854;20.580;2024-03-17T08:53:36;5.40;99.90
21759;DHT22;11041;50.854;20.580;2024-03-17T08:56:08;5.60;99.90
21759;DHT22;11041;50.854;20.580;2024-03-17T08:58:37;5.70;99.90
21759;DHT22;11041;50.854;20.580;2024-03-17T09:01:07;5.80;99.90
21759;DHT22;11041;50.854;20.580;2024-03-17T09:03:36;5.70;99.90
21759;DHT22;11041;50.854;20.580;2024-03-17T09:06:04;5.80;99.90
21759;DHT22;11041;50.854;20.580;2024-03-17T09:08:41;5.90;99.90
21759;DHT22;11041;50.854;20.580;2024-03-17T09:11:13;5.80;99.90
21759;DHT22;11041;50.854;20.580;2024-03-17T09:13:40;6.20;99.90
21759;DHT22;11041;50.854;20.580;2024-03-17T09:16:07;6.50;99.90
21759;DHT22;11041;50.854;20.580;2024-03-17T09:18:37;6.40;99.90
21759;DHT22;11041;50.854;20.580;2024-03-17T09:21:05;6.60;99.90
21759;DHT22;11041;50.854;20.580;2024-03-17T09:23:36;6.60;99.90
21759;DHT22;11041;50.854;20.580;2024-03-17T09:26:06;6.40;99.90
21759;DHT22;11041;50.854;20.580;2024-03-17T09:28:42;6.70;99.90
21759;DHT22;11041;50.854;20.580;2024-03-17T09:31:08;6.80;99.90
21759;DHT22;11041;50.854;20.580;2024-03-17T09:33:37;6.60;99.90
21759;DHT22;11041;50.854;20.580;2024-03-17T09:36:06;6.20;99.90
21759;DHT22;11041;50.854;20.580;2024-03-17T09:38:34;6.10;99.90
21759;DHT22;11041;50.854;20.580;2024-03-17T09:41:02;6.10;99.90
21759;DHT22;11041;50.854;20.580;2024-03-17T09:43:31;6.10;99.90
21759;DHT22;11041;50.854;20.580;2024-03-17T09:46:02;6.00;99.90
21759;DHT22;11041;50.854;20.580;2024-03-17T09:48:30;6.10;99.90
21759;DHT22;11041;50.854;20.580;2024-03-17T09:51:02;6.40;99.90
21759;DHT22;11041;50.854;20.580;2024-03-17T09:53:30;6.50;99.90
21759;DHT22;11041;50.854;20.580;2024-03-17T09:56:12;6.50;99.90
21759;DHT22;11041;50.854;20.580;2024-03-17T09:58:41;6.70;99.90
21759;DHT22;11041;50.854;20.580;2024-03-17T10:01:09;6.80;99.90
21759;DHT22;11041;50.854;20.580;2024-03-17T10:03:49;6.80;99.90
21759;DHT22;11041;50.854;20.580;2024-03-17T10:06:30;6.60;99.90
21759;DHT22;11041;50.854;20.580;2024-03-17T10:08:59;6.70;99.90
21759;DHT22;11041;50.854;20.580;2024-03-17T10:11:34;6.70;99.90
21759;DHT22;11041;50.854;20.580;2024-03-17T10:14:04;6.70;99.90
21759;DHT22;11041;50.854;20.580;2024-03-17T10:16:32;6.70;99.90
21759;DHT22;11041;50.854;20.580;2024-03-17T10:21:57;6.90;99.90
21759;DHT22;11041;50.854;20.580;2024-03-17T10:24:27;7.00;99.90
21759;DHT22;11041;50.854;20.580;2024-03-17T10:26:56;6.90;99.90
21759;DHT22;11041;50.854;20.580;2024-03-17T10:29:35;7.10;99.90
21759;DHT22;11041;50.854;20.580;2024-03-17T10:32:15;7.10;99.90
21759;DHT22;11041;50.854;20.580;2024-03-17T10:34:43;7.10;99.90
21759;DHT22;11041;50.854;20.580;2024-03-17T10:37:10;7.10;99.90
21759;DHT22;11041;50.854;20.580;2024-03-17T10:39:41;7.00;99.90
21759;DHT22;11041;50.854;20.580;2024-03-17T10:42:10;6.80;99.90
21759;DHT22;11041;50.854;20.580;2024-03-17T10:44:40;7.00;99.90
21759;DHT22;11041;50.854;20.580;2024-03-17T10:47:24;7.20;99.90
21759;DHT22;11041;50.854;20.580;2024-03-17T10:49:55;6.90;99.90
21759;DHT22;11041;50.854;20.580;2024-03-17T10:52:23;7.10;99.90
21759;DHT22;11041;50.854;20.580;2024-03-17T10:54:55;7.10;99.90
21759;DHT22;11041;50.854;20.580;2024-03-17T11:00:05;7.50;99.90
21759;DHT22;11041;50.854;20.580;2024-03-17T11:02:35;7.40;99.90
21759;DHT22;11041;50.854;20.580;2024-03-17T11:05:09;7.50;99.90
21759;DHT22;11041;50.854;20.580;2024-03-17T11:07:51;7.10;99.90
21759;DHT22;11041;50.854;20.580;2024-03-17T11:10:26;7.20;99.90
21759;DHT22;11041;50.854;20.580;2024-03-17T11:12:59;7.50;99.90
21759;DHT22;11041;50.854;20.580;2024-03-17T11:23:38;6.80;99.90
21759;DHT22;11041;50.854;20.580;2024-03-17T11:26:05;6.60;99.90
21759;DHT22;11041;50.854;20.580;2024-03-17T11:31:32;6.60;99.90
21759;DHT22;11041;50.854;20.580;2024-03-17T11:34:00;6.70;99.90
21759;DHT22;11041;50.854;20.580;2024-03-17T11:36:37;6.90;99.90
21759;DHT22;11041;50.854;20.580;2024-03-17T11:39:08;6.90;99.90
21759;DHT22;11041;50.854;20.580;2024-03-17T11:41:44;6.80;99.90
21759;DHT22;11041;50.854;20.580;2024-03-17T11:47:06;6.80;99.90
21759;DHT22;11041;50.854;20.580;2024-03-17T11:49:40;6.80;99.90
21759;DHT22;11041;50.854;20.580;2024-03-17T11:52:19;6.80;99.90
21759;DHT22;11041;50.854;20.580;2024-03-17T11:54:47;6.90;99.90
21759;DHT22;11041;50.854;20.580;2024-03-17T11:57:34;6.90;99.90
21759;DHT22;11041;50.854;20.580;2024-03-17T12:00:01;6.90;99.90
21759;DHT22;11041;50.854;20.580;2024-03-17T12:02:34;6.90;99.90
21759;DHT22;11041;50.854;20.580;2024-03-17T12:05:01;6.70;99.90
21759;DHT22;11041;50.854;20.580;2024-03-17T12:07:28;6.80;99.90
21759;DHT22;11041;50.854;20.580;2024-03-17T12:09:56;6.80;99.90
21759;DHT22;11041;50.854;20.580;2024-03-17T12:12:25;6.80;99.90
21759;DHT22;11041;50.854;20.580;2024-03-17T12:15:05;6.70;99.90
21759;DHT22;11041;50.854;20.580;2024-03-17T12:17:44;6.70;99.90
21759;DHT22;11041;50.854;20.580;2024-03-17T12:20:19;6.70;99.90
21759;DHT22;11041;50.854;20.580;2024-03-17T12:22:48;6.60;99.90
21759;DHT22;11041;50.854;20.580;2024-03-17T12:25:20;6.70;99.90
21759;DHT22;11041;50.854;20.580;2024-03-17T12:27:49;7.00;99.90
21759;DHT22;11041;50.854;20.580;2024-03-17T12:30:16;7.10;99.90
21759;DHT22;11041;50.854;20.580;2024-03-17T12:32:45;7.00;99.90
21759;DHT22;11041;50.854;20.580;2024-03-17T12:35:15;6.90;99.90
21759;DHT22;11041;50.854;20.580;2024-03-17T12:37:46;6.90;99.90
21759;DHT22;11041;50.854;20.580;2024-03-17T12:40:21;6.90;99.90
21759;DHT22;11041;50.854;20.580;2024-03-17T12:42:50;6.80;99.90
21759;DHT22;11041;50.854;20.580;2024-03-17T12:45:23;7.20;99.90
21759;DHT22;11041;50.854;20.580;2024-03-17T12:47:51;7.20;99.90
21759;DHT22;11041;50.854;20.580;2024-03-17T12:50:18;7.50;99.90
21759;DHT22;11041;50.854;20.580;2024-03-17T12:52:52;7.60;99.90
21759;DHT22;11041;50.854;20.580;2024-03-17T12:55:21;7.40;99.90
21759;DHT22;11041;50.854;20.580;2024-03-17T12:58:08;7.70;99.90
21759;DHT22;11041;50.854;20.580;2024-03-17T13:01:03;8.10;99.90
21759;DHT22;11041;50.854;20.580;2024-03-17T13:03:35;8.50;99.90
21759;DHT22;11041;50.854;20.580;2024-03-17T13:06:09;8.80;99.90
21759;DHT22;11041;50.854;20.580;2024-03-17T13:08:36;8.70;99.90
21759;DHT22;11041;50.854;20.580;2024-03-17T13:11:03;8.20;99.90
21759;DHT22;11041;50.854;20.580;2024-03-17T13:13:30;8.10;99.90
21759;DHT22;11041;50.854;20.580;2024-03-17T13:15:56;8.10;99.90
21759;DHT22;11041;50.854;20.580;2024-03-17T13:18:24;7.60;99.90
21759;DHT22;11041;50.854;20.580;2024-03-17T13:20:51;7.30;99.90
21759;DHT22;11041;50.854;20.580;2024-03-17T13:23:20;7.20;99.90
21759;DHT22;11041;50.854;20.580;2024-03-17T13:25:50;7.20;99.90
21759;DHT22;11041;50.854;20.580;2024-03-17T13:28:16;7.00;99.90
21759;DHT22;11041;50.854;20.580;2024-03-17T13:30:43;6.90;99.90
21759;DHT22;11041;50.854;20.580;2024-03-17T13:33:10;6.90;99.90
21759;DHT22;11041;50.854;20.580;2024-03-17T13:35:40;6.90;99.90
21759;DHT22;11041;50.854;20.580;2024-03-17T13:38:09;6.90;99.90
21759;DHT22;11041;50.854;20.580;2024-03-17T13:40:38;6.70;99.90
21759;DHT22;11041;50.854;20.580;2024-03-17T13:43:06;6.80;99.90
21759;DHT22;11041;50.854;20.580;2024-03-17T13:45:40;6.70;99.90
21759;DHT22;11041;50.854;20.580;2024-03-17T13:48:08;6.80;99.90
21759;DHT22;11041;50.854;20.580;2024-03-17T13:50:38;7.00;99.90
21759;DHT22;11041;50.854;20.580;2024-03-17T13:53:08;6.90;99.90
21759;DHT22;11041;50.854;20.580;2024-03-17T13:55:34;6.90;99.90
21759;DHT22;11041;50.854;20.580;2024-03-17T13:58:01;6.60;99.90
21759;DHT22;11041;50.854;20.580;2024-03-17T14:00:28;6.80;99.90
21759;DHT22;11041;50.854;20.580;2024-03-17T14:02:57;6.60;99.90
21759;DHT22;11041;50.854;20.580;2024-03-17T14:05:25;6.60;99.90
21759;DHT22;11041;50.854;20.580;2024-03-17T14:07:53;6.50;99.90
21759;DHT22;11041;50.854;20.580;2024-03-17T14:10:22;6.40;99.90
21759;DHT22;11041;50.854;20.580;2024-03-17T14:12:51;6.40;99.90
21759;DHT22;11041;50.854;20.580;2024-03-17T14:15:17;6.50;99.90
21759;DHT22;11041;50.854;20.580;2024-03-17T14:17:45;6.40;99.90
21759;DHT22;11041;50.854;20.580;2024-03-17T14:20:14;6.50;99.90
21759;DHT22;11041;50.854;20.580;2024-03-17T14:22:44;6.50;99.90
21759;DHT22;11041;50.854;20.580;2024-03-17T14:25:19;6.50;99.90
21759;DHT22;11041;50.854;20.580;2024-03-17T14:27:48;6.40;99.90
21759;DHT22;11041;50.854;20.580;2024-03-17T14:30:17;6.30;99.90
21759;DHT22;11041;50.854;20.580;2024-03-17T14:32:45;6.30;99.90
21759;DHT22;11041;50.854;20.580;2024-03-17T14:35:14;6.30;99.90
21759;DHT22;11041;50.854;20.580;2024-03-17T14:37:44;6.20;99.90
21759;DHT22;11041;50.854;20.580;2024-03-17T14:40:17;6.30;99.90
21759;DHT22;11041;50.854;20.580;2024-03-17T14:42:52;6.40;99.90
21759;DHT22;11041;50.854;20.580;2024-03-17T14:45:19;6.30;99.90
21759;DHT22;11041;50.854;20.580;2024-03-17T14:47:48;6.30;99.90
21759;DHT22;11041;50.854;20.580;2024-03-17T14:50:15;6.30;99.90
21759;DHT22;11041;50.854;20.580;2024-03-17T14:52:42;6.40;99.90
21759;DHT22;11041;50.854;20.580;2024-03-17T14:55:10;6.40;99.90
21759;DHT22;11041;50.854;20.580;2024-03-17T14:57:38;6.30;99.90
21759;DHT22;11041;50.854;20.580;2024-03-17T15:00:10;6.20;99.90
21759;DHT22;11041;50.854;20.580;2024-03-17T15:02:45;6.00;99.90
21759;DHT22;11041;50.854;20.580;2024-03-17T15:05:13;6.20;99.90
21759;DHT22;11041;50.854;20.580;2024-03-17T15:07:40;6.10;99.90
21759;DHT22;11041;50.854;20.580;2024-03-17T15:10:07;6.10;99.90
21759;DHT22;11041;50.854;20.580;2024-03-17T15:12:34;6.10;99.90
21759;DHT22;11041;50.854;20.580;2024-03-17T15:15:00;6.10;99.90
21759;DHT22;11041;50.854;20.580;2024-03-17T15:17:27;6.20;99.90
21759;DHT22;11041;50.854;20.580;2024-03-17T15:19:54;6.20;99.90
21759;DHT22;11041;50.854;20.580;2024-03-17T15:22:20;6.10;99.90
21759;DHT22;11041;50.854;20.580;2024-03-17T15:24:48;6.00;99.90
21759;DHT22;11041;50.854;20.580;2024-03-17T15:27:15;5.90;99.90
21759;DHT22;11041;50.854;20.580;2024-03-17T15:29:45;5.90;99.90
21759;DHT22;11041;50.854;20.580;2024-03-17T15:32:12;5.80;99.90
21759;DHT22;11041;50.854;20.580;2024-03-17T15:34:40;5.70;99.90
21759;DHT22;11041;50.854;20.580;2024-03-17T15:37:06;5.60;99.90
21759;DHT22;11041;50.854;20.580;2024-03-17T15:39:37;5.30;99.90
21759;DHT22;11041;50.854;20.580;2024-03-17T15:42:03;5.10;99.90
21759;DHT22;11041;50.854;20.580;2024-03-17T15:44:31;5.20;99.90
21759;DHT22;11041;50.854;20.580;2024-03-17T15:46:58;5.30;99.90
21759;DHT22;11041;50.854;20.580;2024-03-17T15:49:25;5.30;99.90
21759;DHT22;11041;50.854;20.580;2024-03-17T15:51:51;5.20;99.90
21759;DHT22;11041;50.854;20.580;2024-03-17T15:54:18;5.20;99.90
21759;DHT22;11041;50.854;20.580;2024-03-17T15:56:44;5.10;99.90
21759;DHT22;11041;50.854;20.580;2024-03-17T15:59:11;5.10;99.90
21759;DHT22;11041;50.854;20.580;2024-03-17T16:01:38;5.20;99.90
21759;DHT22;11041;50.854;20.580;2024-03-17T16:04:04;5.30;99.90
21759;DHT22;11041;50.854;20.580;2024-03-17T16:06:32;5.30;99.90